Time;durP1;ratioP1;P1;durP2;ratioP2;P2;SDS_P1;SDS_P2;PMS_P1;PMS_P2;Temp;Humidity;BMP_temperature;BMP_pressure;BME280_temperature;BME280_humidity;BME280_pressure;Samples;Min_cycle;Max_cycle;Signal;HPM_P1;HPM_P2
2022/04/15 00:02:10;;;;;;;12.10;6.88;;;7.90;99.90;;;;;;5009853;28;20045;-88
2022/04/15 00:04:37;;;;;;;10.35;6.85;;;7.10;99.90;;;;;;5006938;28;20045;-87
2022/04/15 00:07:10;;;;;;;12.10;6.82;;;7.50;99.90;;;;;;5010908;28;20037;-88
2022/04/15 00:09:44;;;;;;;11.73;6.82;;;7.20;99.90;;;;;;5002351;28;20063;-88
2022/04/15 00:12:27;;;;;;;15.05;6.90;;;7.20;99.90;;;;;;5008362;28;20158;-87
2022/04/15 00:14:53;;;;;;;12.20;7.10;;;7.30;99.90;;;;;;5012928;28;20450;-88
2022/04/15 00:17:19;;;;;;;11.15;6.97;;;7.90;99.90;;;;;;5019912;28;20037;-87
2022/04/15 00:19:47;;;;;;;13.32;8.05;;;7.40;99.90;;;;;;5009261;28;20045;-87
2022/04/15 00:22:13;;;;;;;14.27;6.97;;;7.90;99.90;;;;;;5018927;28;20159;-86
2022/04/15 00:24:38;;;;;;;14.35;7.60;;;7.50;99.90;;;;;;5004013;28;20475;-88
2022/04/15 00:27:04;;;;;;;13.25;6.82;;;7.50;99.90;;;;;;5030234;28;20124;-87
2022/04/15 00:29:30;;;;;;;15.45;7.57;;;7.50;99.90;;;;;;4996867;28;20042;-87
2022/04/15 00:31:56;;;;;;;10.63;6.82;;;8.30;99.90;;;;;;5004371;28;20121;-87
2022/04/15 00:34:22;;;;;;;12.60;7.45;;;7.20;99.90;;;;;;4997172;28;20033;-87
2022/04/15 00:36:47;;;;;;;16.75;7.13;;;8.30;99.90;;;;;;5001113;28;20058;-87
2022/04/15 00:39:13;;;;;;;14.02;7.40;;;7.80;99.90;;;;;;5013676;28;20519;-87
2022/04/15 00:41:43;;;;;;;13.20;7.30;;;7.50;99.90;;;;;;5010885;28;20398;-88
2022/04/15 00:44:09;;;;;;;12.18;7.20;;;6.90;99.90;;;;;;4999285;28;20073;-87
2022/04/15 00:46:34;;;;;;;11.93;6.93;;;8.00;99.90;;;;;;5005163;28;20072;-86
2022/04/15 00:49:00;;;;;;;12.75;7.15;;;8.30;99.90;;;;;;5020867;28;20101;-88
2022/04/15 00:51:26;;;;;;;9.95;6.97;;;7.80;99.90;;;;;;5024279;28;20040;-89
2022/04/15 00:53:53;;;;;;;11.38;7.25;;;8.10;99.90;;;;;;5007214;28;20392;-87
2022/04/15 00:56:22;;;;;;;12.57;6.95;;;8.00;99.90;;;;;;5026044;28;20408;-88
2022/04/15 00:58:50;;;;;;;10.77;6.72;;;7.90;99.90;;;;;;5014810;28;20444;-87
2022/04/15 01:01:16;;;;;;;13.20;6.43;;;8.30;99.90;;;;;;5004549;28;20038;-87
2022/04/15 01:03:43;;;;;;;10.27;6.40;;;8.00;99.90;;;;;;5003738;28;20056;-86
2022/04/15 01:06:11;;;;;;;12.43;6.30;;;8.00;99.90;;;;;;5005708;28;20172;-86
2022/04/15 01:08:39;;;;;;;10.80;6.38;;;8.00;99.90;;;;;;5018883;28;20038;-86
2022/04/15 01:11:06;;;;;;;11.63;6.95;;;8.50;99.90;;;;;;5014764;28;20033;-86
2022/04/15 01:13:35;;;;;;;13.82;7.13;;;7.90;99.90;;;;;;5012037;28;20064;-86
2022/04/15 01:16:01;;;;;;;14.65;7.20;;;8.00;99.90;;;;;;4997086;28;20307;-87
2022/04/15 01:18:26;;;;;;;9.18;6.28;;;8.00;99.90;;;;;;5026110;28;20048;-87
2022/04/15 01:20:53;;;;;;;13.95;6.53;;;8.00;99.90;;;;;;5006903;28;20133;-88
2022/04/15 01:23:20;;;;;;;13.45;7.55;;;8.60;99.90;;;;;;5011917;28;20052;-88
2022/04/15 01:25:45;;;;;;;13.48;6.30;;;8.00;99.90;;;;;;5009733;28;20031;-87
2022/04/15 01:28:11;;;;;;;11.65;6.30;;;8.00;99.90;;;;;;5027074;28;20439;-87
2022/04/15 01:30:37;;;;;;;11.63;6.50;;;8.00;99.90;;;;;;5006379;28;20503;-87
2022/04/15 01:33:03;;;;;;;9.25;5.90;;;8.20;99.90;;;;;;5013019;28;20049;-89
2022/04/15 01:35:29;;;;;;;9.20;5.97;;;8.10;99.90;;;;;;5000159;28;20069;-88
2022/04/15 01:37:59;;;;;;;12.23;6.00;;;8.10;99.90;;;;;;5001540;28;20427;-88
2022/04/15 01:40:25;;;;;;;11.00;6.18;;;8.20;99.90;;;;;;5021676;28;20385;-87
2022/04/15 01:42:51;;;;;;;11.20;6.07;;;8.10;99.90;;;;;;5019853;28;20044;-87
2022/04/15 01:45:16;;;;;;;10.40;5.97;;;8.40;99.90;;;;;;5020006;28;20605;-87
2022/04/15 01:47:44;;;;;;;8.48;5.55;;;8.30;99.90;;;;;;5014065;28;20527;-88
2022/04/15 01:50:11;;;;;;;9.65;5.43;;;8.60;99.90;;;;;;4997652;28;20045;-87
2022/04/15 01:52:36;;;;;;;11.15;5.93;;;8.10;99.90;;;;;;4994907;28;20500;-88
2022/04/15 01:55:03;;;;;;;13.65;5.70;;;8.50;99.90;;;;;;5023019;28;20049;-87
2022/04/15 01:57:29;;;;;;;10.57;5.60;;;8.10;99.90;;;;;;5018633;28;20042;-88
2022/04/15 01:59:54;;;;;;;10.90;5.28;;;8.30;99.90;;;;;;5017922;28;20038;-88
2022/04/15 02:02:20;;;;;;;9.05;5.25;;;8.50;99.90;;;;;;5015560;28;20045;-88
2022/04/15 02:04:46;;;;;;;15.85;5.22;;;8.20;99.90;;;;;;5006087;28;20073;-87
2022/04/15 02:07:12;;;;;;;7.88;4.80;;;8.50;99.90;;;;;;5010496;28;20506;-87
2022/04/15 02:09:37;;;;;;;9.57;4.60;;;8.00;99.90;;;;;;5006375;28;20029;-87
2022/04/15 02:12:03;;;;;;;10.95;4.70;;;8.20;99.90;;;;;;5002864;28;20121;-87
2022/04/15 02:14:30;;;;;;;11.10;4.90;;;8.20;99.90;;;;;;5019586;28;20044;-87
2022/04/15 02:16:55;;;;;;;9.30;4.30;;;8.40;99.90;;;;;;5019578;28;20053;-87
2022/04/15 02:19:22;;;;;;;8.48;4.35;;;8.90;99.90;;;;;;5025336;28;20651;-90
2022/04/15 02:21:49;;;;;;;12.20;5.30;;;8.20;99.90;;;;;;5036033;28;20064;-87
2022/04/15 02:24:14;;;;;;;10.88;5.10;;;8.70;99.90;;;;;;5015206;28;20548;-87
2022/04/15 02:26:41;;;;;;;12.48;5.25;;;8.20;99.90;;;;;;5028190;28;20196;-88
2022/04/15 02:29:07;;;;;;;10.32;5.30;;;8.60;99.90;;;;;;5020168;28;20508;-88
2022/04/15 02:31:33;;;;;;;10.90;5.72;;;8.90;99.90;;;;;;5006563;28;20042;-87
2022/04/15 02:33:58;;;;;;;14.95;5.80;;;8.20;99.90;;;;;;5003030;28;20042;-87
2022/04/15 02:36:24;;;;;;;14.27;6.47;;;8.30;99.90;;;;;;5021435;28;20520;-88
2022/04/15 02:38:50;;;;;;;18.25;7.40;;;8.20;99.90;;;;;;5012897;28;20042;-88
2022/04/15 02:41:16;;;;;;;16.05;6.32;;;8.30;99.90;;;;;;5005235;28;20037;-87
2022/04/15 02:43:41;;;;;;;13.50;6.68;;;8.30;99.90;;;;;;5010625;28;20042;-87
2022/04/15 02:46:10;;;;;;;17.08;7.18;;;8.30;99.90;;;;;;5014813;28;20041;-88
2022/04/15 02:48:36;;;;;;;15.45;6.85;;;8.40;99.90;;;;;;5025151;28;20129;-87
2022/04/15 02:51:02;;;;;;;15.45;6.82;;;8.60;99.90;;;;;;5006231;28;20475;-87
2022/04/15 02:53:29;;;;;;;13.65;6.82;;;8.40;99.90;;;;;;5014806;28;20052;-87
2022/04/15 02:55:55;;;;;;;15.63;7.38;;;8.20;99.90;;;;;;5012552;28;20418;-87
2022/04/15 02:58:21;;;;;;;18.15;7.10;;;8.10;99.90;;;;;;5022279;28;20487;-87
2022/04/15 03:00:47;;;;;;;18.00;7.57;;;8.20;99.90;;;;;;5005028;28;20068;-87
2022/04/15 03:03:13;;;;;;;14.27;6.93;;;7.60;99.90;;;;;;5008608;28;20038;-87
2022/04/15 03:05:40;;;;;;;16.73;8.98;;;8.20;99.90;;;;;;5029858;28;20499;-87
2022/04/15 03:08:07;;;;;;;15.23;9.27;;;7.90;99.90;;;;;;5003820;28;20129;-88
2022/04/15 03:10:33;;;;;;;19.42;11.30;;;8.20;99.90;;;;;;5027778;28;20034;-88
2022/04/15 03:12:58;;;;;;;19.30;13.25;;;8.10;99.90;;;;;;5018363;28;20136;-88
2022/04/15 03:15:24;;;;;;;19.63;14.25;;;8.60;99.90;;;;;;5023211;28;20037;-87
2022/04/15 03:17:50;;;;;;;18.33;12.75;;;8.60;99.90;;;;;;5015910;28;20029;-88
2022/04/15 03:20:15;;;;;;;21.63;13.50;;;8.00;99.90;;;;;;5029507;28;20033;-87
2022/04/15 03:22:43;;;;;;;18.33;13.38;;;8.10;99.90;;;;;;5025354;28;20038;-88
2022/04/15 03:25:12;;;;;;;17.52;13.88;;;7.90;99.90;;;;;;5008556;28;20392;-88
2022/04/15 03:27:38;;;;;;;17.88;11.73;;;8.10;99.90;;;;;;5000439;28;20042;-88
2022/04/15 03:30:05;;;;;;;14.35;10.48;;;8.30;99.90;;;;;;5011167;28;20092;-88
2022/04/15 03:32:31;;;;;;;10.75;8.73;;;8.10;99.90;;;;;;5007274;28;20049;-87
2022/04/15 03:35:02;;;;;;;11.40;8.23;;;8.00;99.90;;;;;;5008129;28;20372;-88
2022/04/15 03:37:33;;;;;;;9.88;7.90;;;7.80;99.90;;;;;;5025455;28;20495;-87
2022/04/15 03:40:01;;;;;;;7.80;6.72;;;8.00;99.90;;;;;;5010346;28;20647;-88
2022/04/15 03:42:27;;;;;;;8.07;7.22;;;8.00;99.90;;;;;;5003291;28;20128;-87
2022/04/15 03:44:53;;;;;;;9.35;6.53;;;8.00;99.90;;;;;;5003540;28;20102;-89
2022/04/15 03:47:18;;;;;;;9.18;6.88;;;7.80;99.90;;;;;;5022476;28;20042;-89
2022/04/15 03:49:46;;;;;;;8.02;6.45;;;8.00;99.90;;;;;;5025123;28;20535;-88
2022/04/15 03:52:11;;;;;;;9.18;6.68;;;8.00;99.90;;;;;;5022458;28;20038;-88
2022/04/15 03:54:37;;;;;;;7.30;6.20;;;7.90;99.90;;;;;;5022474;28;20534;-88
2022/04/15 03:57:03;;;;;;;8.65;6.32;;;8.00;99.90;;;;;;5016590;28;20049;-87
2022/04/15 03:59:29;;;;;;;8.15;5.50;;;7.80;99.90;;;;;;5005012;28;20053;-89
2022/04/15 04:01:54;;;;;;;9.20;5.95;;;7.90;99.90;;;;;;5007090;28;20534;-87
2022/04/15 04:04:20;;;;;;;10.77;6.68;;;7.90;99.90;;;;;;4970853;28;1219919;-88
2022/04/15 04:06:45;;;;;;;8.55;6.00;;;7.90;99.90;;;;;;5008657;28;20038;-88
2022/04/15 04:09:13;;;;;;;7.07;5.82;;;8.20;99.90;;;;;;5028682;28;20064;-88
2022/04/15 04:11:38;;;;;;;7.45;5.75;;;7.80;99.90;;;;;;5006117;28;20065;-88
2022/04/15 04:14:04;;;;;;;7.43;6.15;;;8.00;99.90;;;;;;4998275;28;20077;-88
2022/04/15 04:16:30;;;;;;;8.65;5.78;;;8.30;99.90;;;;;;5000761;28;20068;-88
2022/04/15 04:18:55;;;;;;;7.75;6.05;;;7.70;99.90;;;;;;5023666;28;20045;-88
2022/04/15 04:21:21;;;;;;;6.93;6.00;;;8.00;99.90;;;;;;5011529;28;20395;-88
2022/04/15 04:23:50;;;;;;;8.10;5.53;;;8.40;99.90;;;;;;5001743;28;20048;-88
2022/04/15 04:26:19;;;;;;;8.05;5.35;;;7.80;99.90;;;;;;5000054;28;20034;-88
2022/04/15 04:28:50;;;;;;;6.32;5.28;;;7.70;99.90;;;;;;5012587;28;20171;-87
2022/04/15 04:31:17;;;;;;;6.53;5.50;;;7.60;99.90;;;;;;5024462;28;20045;-87
2022/04/15 04:33:42;;;;;;;7.88;4.93;;;7.60;99.90;;;;;;5009849;28;20037;-89
2022/04/15 04:36:08;;;;;;;7.38;5.82;;;7.80;99.90;;;;;;5009932;28;20041;-87
2022/04/15 04:38:34;;;;;;;6.97;5.40;;;8.20;99.90;;;;;;4995961;28;20111;-87
2022/04/15 04:41:05;;;;;;;8.48;6.03;;;7.60;99.90;;;;;;5009679;28;20411;-88
2022/04/15 04:44:20;;;;;;;9.98;5.07;;;7.50;99.90;;;;;;5024590;28;20052;-87
2022/04/15 04:51:47;;;;;;;;;;;;;;;;;;;;;
2022/04/15 04:54:19;;;;;;;7.30;4.40;;;7.70;99.90;;;;;;5034966;28;20056;-87
2022/04/15 04:56:46;;;;;;;8.48;4.65;;;7.30;99.90;;;;;;5045408;28;20506;-88
2022/04/15 04:59:11;;;;;;;5.45;4.30;;;7.30;99.90;;;;;;5038107;28;20067;-87
2022/04/15 05:01:37;;;;;;;17.77;10.40;;;7.30;99.90;;;;;;5054319;28;20047;-87
2022/04/15 05:04:02;;;;;;;8.35;5.55;;;7.50;99.90;;;;;;5037555;28;20051;-87
2022/04/15 05:06:28;;;;;;;6.35;4.70;;;7.80;99.90;;;;;;5037688;28;20087;-88
2022/04/15 05:08:56;;;;;;;6.97;3.83;;;7.20;99.90;;;;;;5035931;28;20048;-87
2022/04/15 05:11:22;;;;;;;4.60;2.75;;;7.30;99.90;;;;;;5038119;28;20041;-88
2022/04/15 05:13:50;;;;;;;3.75;2.83;;;7.20;99.90;;;;;;5037366;28;20040;-88
2022/04/15 05:16:19;;;;;;;5.45;3.15;;;7.20;99.90;;;;;;5038475;28;20068;-87
2022/04/15 05:18:45;;;;;;;5.57;3.58;;;7.30;99.90;;;;;;5040673;28;20040;-88
2022/04/15 05:21:11;;;;;;;6.38;3.70;;;7.20;99.90;;;;;;5038484;28;20048;-87
2022/04/15 05:23:36;;;;;;;4.68;3.75;;;7.20;99.90;;;;;;5036145;28;20463;-87
2022/04/15 05:26:02;;;;;;;6.60;4.35;;;7.60;99.90;;;;;;5036361;28;20033;-87
2022/04/15 05:28:28;;;;;;;4.57;3.40;;;7.20;99.90;;;;;;5036848;28;20041;-86
2022/04/15 05:30:53;;;;;;;4.55;3.10;;;7.20;99.90;;;;;;5037555;28;20029;-88
2022/04/15 05:33:20;;;;;;;6.28;3.50;;;7.00;99.90;;;;;;5037653;28;20124;-87
2022/04/15 05:35:45;;;;;;;5.30;3.78;;;7.10;99.90;;;;;;5037133;28;20051;-88
2022/04/15 05:38:11;;;;;;;7.80;4.70;;;7.10;99.90;;;;;;5037411;28;20044;-86
2022/04/15 05:40:39;;;;;;;8.82;4.90;;;7.20;99.90;;;;;;5037771;28;20463;-88
2022/04/15 05:43:04;;;;;;;8.35;5.65;;;7.50;99.90;;;;;;5058212;28;20037;-87
2022/04/15 05:45:31;;;;;;;8.18;4.88;;;8.00;99.90;;;;;;5037210;28;20044;-87
2022/04/15 05:47:57;;;;;;;8.02;5.70;;;7.20;99.90;;;;;;5030282;28;20082;-88
2022/04/15 05:50:25;;;;;;;9.73;5.60;;;7.20;99.90;;;;;;5036498;28;20043;-88
2022/04/15 05:52:50;;;;;;;8.77;6.00;;;7.40;99.90;;;;;;5036081;28;20036;-86
2022/04/15 05:55:16;;;;;;;8.85;5.95;;;7.30;99.90;;;;;;5036009;28;20038;-89
2022/04/15 05:57:41;;;;;;;11.77;6.72;;;7.60;99.90;;;;;;5035075;28;20123;-87
2022/04/15 06:00:09;;;;;;;9.05;5.68;;;7.80;99.90;;;;;;5036257;28;20028;-88
2022/04/15 06:02:34;;;;;;;11.20;6.75;;;7.40;99.90;;;;;;5052994;28;20045;-87
2022/04/15 06:05:00;;;;;;;10.10;7.22;;;7.50;99.90;;;;;;5053059;28;20193;-86
2022/04/15 06:07:26;;;;;;;11.50;6.63;;;7.50;99.90;;;;;;5035665;28;20040;-87
2022/04/15 06:09:51;;;;;;;10.27;7.05;;;7.40;99.90;;;;;;5035481;28;20064;-87
2022/04/15 06:12:21;;;;;;;9.02;6.85;;;7.60;99.90;;;;;;5035983;28;20040;-87
2022/04/15 06:14:49;;;;;;;9.05;6.97;;;8.00;99.90;;;;;;5035908;28;20628;-88
2022/04/15 06:17:22;;;;;;;8.68;6.43;;;7.40;99.90;;;;;;5030094;28;20486;-87
2022/04/15 06:19:48;;;;;;;9.88;7.03;;;7.40;99.90;;;;;;5047474;28;20070;-87
2022/04/15 06:22:14;;;;;;;10.60;6.82;;;7.10;99.90;;;;;;5027898;28;20074;-87
2022/04/15 06:24:40;;;;;;;10.10;6.53;;;7.90;99.90;;;;;;5051823;28;20045;-87
2022/04/15 06:27:05;;;;;;;10.23;7.40;;;7.60;99.90;;;;;;5041277;28;20036;-87
2022/04/15 06:29:31;;;;;;;11.60;7.03;;;8.40;99.90;;;;;;5030778;28;20029;-87
2022/04/15 06:31:56;;;;;;;12.23;6.88;;;7.60;99.90;;;;;;5052612;28;20036;-88
2022/04/15 06:34:22;;;;;;;10.27;7.57;;;7.50;99.90;;;;;;5034949;28;20067;-87
2022/04/15 06:36:48;;;;;;;11.23;8.23;;;8.00;99.90;;;;;;5051475;28;20510;-87
2022/04/15 06:39:13;;;;;;;11.48;7.72;;;7.80;99.90;;;;;;5051427;28;20052;-87
2022/04/15 06:41:40;;;;;;;10.32;7.70;;;8.30;99.90;;;;;;5035384;28;20044;-88
2022/04/15 06:44:06;;;;;;;12.15;8.30;;;7.70;99.90;;;;;;5036873;28;20060;-87
2022/04/15 06:46:32;;;;;;;12.40;8.77;;;8.20;99.90;;;;;;5047959;28;20104;-87
2022/04/15 06:48:57;;;;;;;12.23;9.50;;;8.10;99.90;;;;;;5047260;28;20049;-87
2022/04/15 06:51:25;;;;;;;14.98;10.05;;;8.60;99.90;;;;;;5038401;28;20062;-87
2022/04/15 06:53:51;;;;;;;17.75;10.38;;;8.10;99.90;;;;;;5038051;28;20044;-88
2022/04/15 06:56:16;;;;;;;18.20;10.90;;;7.80;99.90;;;;;;5038844;28;20055;-87
2022/04/15 06:58:42;;;;;;;15.68;10.73;;;7.90;99.90;;;;;;5038814;28;20036;-87
2022/04/15 07:01:08;;;;;;;16.23;11.07;;;8.10;99.90;;;;;;5038268;28;20039;-87
2022/04/15 07:03:34;;;;;;;17.85;10.75;;;8.00;99.90;;;;;;5038484;28;20072;-87
2022/04/15 07:05:59;;;;;;;17.48;11.15;;;8.40;99.90;;;;;;5038434;28;20449;-87
2022/04/15 07:08:25;;;;;;;20.85;11.13;;;8.30;99.90;;;;;;5039641;28;20064;-87
2022/04/15 07:10:50;;;;;;;16.63;11.23;;;8.10;99.90;;;;;;5038813;28;20036;-87
2022/04/15 07:13:17;;;;;;;17.90;12.32;;;8.80;99.90;;;;;;5054264;28;20127;-87
2022/04/15 07:15:43;;;;;;;17.25;12.18;;;8.20;99.90;;;;;;5055719;28;20140;-88
2022/04/15 07:18:08;;;;;;;16.45;11.68;;;8.50;99.90;;;;;;5038259;28;20123;-88
2022/04/15 07:20:34;;;;;;;19.75;12.23;;;8.30;99.90;;;;;;5038313;28;20068;-88
2022/04/15 07:23:02;;;;;;;20.48;12.38;;;8.30;99.90;;;;;;5038525;28;20086;-88
2022/04/15 07:25:28;;;;;;;22.73;12.05;;;8.30;99.90;;;;;;5055805;28;20032;-88
2022/04/15 07:27:55;;;;;;;17.60;11.85;;;8.40;99.90;;;;;;5055521;28;20548;-88
2022/04/15 07:30:21;;;;;;;18.48;11.15;;;8.40;99.90;;;;;;5055508;28;20521;-88
2022/04/15 07:32:47;;;;;;;18.60;12.35;;;8.50;99.90;;;;;;5056757;28;20032;-88
2022/04/15 07:35:12;;;;;;;17.90;10.90;;;8.70;99.90;;;;;;5055624;28;20111;-89
2022/04/15 07:37:38;;;;;;;16.35;10.57;;;9.90;99.90;;;;;;5038904;28;20041;-88
2022/04/15 07:40:05;;;;;;;14.93;9.35;;;9.10;99.90;;;;;;5056332;28;20533;-87
2022/04/15 07:42:30;;;;;;;17.95;9.25;;;9.10;99.90;;;;;;5054442;28;20036;-88
2022/04/15 07:44:56;;;;;;;14.13;8.73;;;9.20;99.90;;;;;;5037992;28;20064;-88
2022/04/15 07:47:23;;;;;;;12.98;7.63;;;9.50;99.90;;;;;;5038174;28;20044;-88
2022/04/15 07:49:50;;;;;;;12.52;7.95;;;8.90;99.90;;;;;;5038758;28;20052;-88
2022/04/15 07:52:16;;;;;;;16.00;8.45;;;9.80;99.90;;;;;;5036719;28;20082;-88
2022/04/15 07:54:42;;;;;;;11.68;6.47;;;9.60;99.90;;;;;;5055811;28;20040;-88
2022/04/15 07:57:07;;;;;;;12.48;7.15;;;9.80;99.90;;;;;;5039024;28;20040;-88
2022/04/15 07:59:33;;;;;;;10.50;6.47;;;9.60;99.90;;;;;;5037977;28;20033;-89
2022/04/15 08:01:59;;;;;;;13.70;7.22;;;9.20;99.90;;;;;;5055848;28;20486;-89
2022/04/15 08:04:26;;;;;;;13.68;6.93;;;9.50;99.90;;;;;;5056189;28;20036;-87
2022/04/15 08:06:52;;;;;;;14.20;7.15;;;9.50;99.90;;;;;;5056649;28;20115;-89
2022/04/15 08:09:18;;;;;;;14.68;6.55;;;9.10;99.90;;;;;;5038957;28;20078;-88
2022/04/15 08:11:43;;;;;;;14.38;6.97;;;10.10;99.90;;;;;;5054663;28;20028;-88
2022/04/15 08:14:09;;;;;;;10.88;6.50;;;9.90;99.90;;;;;;5055068;28;20456;-88
2022/04/15 08:16:37;;;;;;;13.65;6.85;;;9.60;99.90;;;;;;5038289;28;20032;-89
2022/04/15 08:19:03;;;;;;;15.35;7.13;;;9.60;99.90;;;;;;5049028;28;20075;-89
2022/04/15 08:21:29;;;;;;;13.95;7.00;;;10.00;99.90;;;;;;5048328;28;20535;-88
2022/04/15 08:23:54;;;;;;;13.27;6.30;;;9.70;99.90;;;;;;5037904;28;20040;-89
2022/04/15 08:26:20;;;;;;;13.10;6.90;;;9.80;99.90;;;;;;5038064;28;20040;-89
2022/04/15 08:28:45;;;;;;;14.35;7.10;;;10.00;99.90;;;;;;5036553;28;20059;-89
2022/04/15 08:31:11;;;;;;;12.40;7.03;;;10.30;99.90;;;;;;5038353;28;20557;-88
2022/04/15 08:33:37;;;;;;;10.57;5.95;;;10.20;99.90;;;;;;5037682;28;20037;-89
2022/04/15 08:36:04;;;;;;;8.45;5.63;;;10.50;99.90;;;;;;5037521;28;20036;-89
2022/04/15 08:38:30;;;;;;;11.05;5.80;;;10.40;99.90;;;;;;5038495;28;20054;-89
2022/04/15 08:40:57;;;;;;;9.35;5.90;;;10.50;99.90;;;;;;5054310;28;20506;-89
2022/04/15 08:43:25;;;;;;;11.15;6.05;;;10.80;99.90;;;;;;5052081;28;20028;-89
2022/04/15 08:45:51;;;;;;;10.30;6.00;;;11.10;99.90;;;;;;5037076;28;20036;-88
2022/04/15 08:48:17;;;;;;;12.13;5.40;;;10.60;99.90;;;;;;5037586;28;20088;-89
2022/04/15 08:50:43;;;;;;;11.55;5.90;;;10.70;99.90;;;;;;5037422;28;20415;-89
2022/04/15 08:53:09;;;;;;;10.45;5.97;;;10.70;99.90;;;;;;5038085;28;20048;-89
2022/04/15 08:55:35;;;;;;;8.90;5.30;;;10.40;99.90;;;;;;5037181;28;20410;-89
2022/04/15 08:58:01;;;;;;;9.10;5.53;;;9.90;99.90;;;;;;5037848;28;20037;-89
2022/04/15 09:00:27;;;;;;;10.65;6.35;;;11.20;99.90;;;;;;5037526;28;20486;-89
2022/04/15 09:02:55;;;;;;;9.48;5.80;;;10.60;99.90;;;;;;5037515;28;20061;-90
2022/04/15 09:05:26;;;;;;;11.02;5.60;;;11.10;99.90;;;;;;5037450;28;20639;-89
2022/04/15 09:08:02;;;;;;;9.73;5.75;;;11.60;99.90;;;;;;5037370;28;20113;-89
2022/04/15 09:10:27;;;;;;;7.00;5.22;;;12.10;99.90;;;;;;5054039;28;20435;-88
2022/04/15 09:12:53;;;;;;;8.30;5.88;;;12.20;99.90;;;;;;5054073;28;20102;-90
2022/04/15 09:15:19;;;;;;;9.35;5.55;;;12.10;99.90;;;;;;5038086;28;20051;-88
2022/04/15 09:17:49;;;;;;;8.20;5.47;;;11.90;99.90;;;;;;5053885;28;20102;-90
2022/04/15 09:20:16;;;;;;;9.38;4.90;;;12.30;99.90;;;;;;5036960;28;20036;-90
2022/04/15 09:22:42;;;;;;;9.93;5.30;;;12.30;99.90;;;;;;5053767;28;20040;-90
2022/04/15 09:25:10;;;;;;;11.65;5.50;;;12.60;99.90;;;;;;5037663;28;20051;-88
2022/04/15 09:27:35;;;;;;;7.10;4.70;;;12.40;99.90;;;;;;5035661;28;20429;-88
2022/04/15 09:30:03;;;;;;;9.48;5.13;;;12.60;99.90;;;;;;5053023;28;20036;-90
2022/04/15 09:32:29;;;;;;;9.25;5.30;;;12.60;99.90;;;;;;5054048;28;20032;-90
2022/04/15 09:34:57;;;;;;;7.65;5.00;;;12.80;99.90;;;;;;5035982;28;20036;-89
2022/04/15 09:37:31;;;;;;;8.68;5.30;;;12.70;99.90;;;;;;5037010;28;20044;-89
2022/04/15 09:40:14;;;;;;;9.43;4.90;;;12.40;99.90;;;;;;5037508;28;20434;-88
2022/04/15 09:42:50;;;;;;;9.83;4.97;;;12.40;99.90;;;;;;5054678;28;20087;-89
2022/04/15 09:45:19;;;;;;;8.85;5.63;;;12.30;99.90;;;;;;5034237;28;20300;-89
2022/04/15 09:47:53;;;;;;;9.77;4.90;;;12.30;99.90;;;;;;5034763;28;20037;-89
2022/04/15 09:50:27;;;;;;;8.23;4.85;;;12.40;99.90;;;;;;5017531;28;20463;-88
2022/04/15 09:52:55;;;;;;;7.95;5.00;;;12.50;99.90;;;;;;5029374;28;20102;-89
2022/04/15 09:55:23;;;;;;;9.75;5.55;;;12.60;99.90;;;;;;5047181;28;20048;-86
2022/04/15 09:57:49;;;;;;;7.57;5.03;;;12.60;99.90;;;;;;5018139;28;20036;-86
2022/04/15 10:00:18;;;;;;;10.20;5.65;;;12.40;99.90;;;;;;5036895;28;20036;-86
2022/04/15 10:02:44;;;;;;;9.02;5.90;;;12.40;99.90;;;;;;5036236;28;20040;-86
2022/04/15 10:05:12;;;;;;;8.48;5.93;;;12.60;99.90;;;;;;5035096;28;20044;-87
2022/04/15 10:07:40;;;;;;;8.63;5.57;;;12.20;99.90;;;;;;5037283;28;20540;-86
2022/04/15 10:10:07;;;;;;;10.13;6.00;;;12.60;99.90;;;;;;5037524;28;20119;-85
2022/04/15 10:12:37;;;;;;;8.45;5.40;;;12.50;99.90;;;;;;5035987;28;20067;-87
2022/04/15 10:15:05;;;;;;;7.45;5.43;;;12.30;99.90;;;;;;5035150;28;20043;-85
2022/04/15 10:17:32;;;;;;;8.20;5.40;;;12.10;99.90;;;;;;5036518;28;20457;-85
2022/04/15 10:20:01;;;;;;;7.68;5.50;;;12.40;99.90;;;;;;5037537;28;20174;-86
2022/04/15 10:22:27;;;;;;;8.45;5.78;;;12.50;99.90;;;;;;5054735;28;20040;-85
2022/04/15 10:24:52;;;;;;;9.32;5.60;;;12.20;99.90;;;;;;5056621;28;20047;-85
2022/04/15 10:27:26;;;;;;;9.00;5.82;;;11.90;99.90;;;;;;5056258;28;20044;-85
2022/04/15 10:30:15;;;;;;;13.73;6.00;;;11.90;99.90;;;;;;5033028;28;20081;-85
2022/04/15 10:32:54;;;;;;;10.80;6.13;;;11.70;99.90;;;;;;5039844;28;20032;-84
2022/04/15 10:35:40;;;;;;;11.55;6.38;;;11.70;99.90;;;;;;5040417;28;20647;-86
2022/04/15 10:38:12;;;;;;;12.75;7.05;;;11.70;99.90;;;;;;5040906;28;20040;-85
2022/04/15 10:40:42;;;;;;;7.75;5.95;;;11.70;99.90;;;;;;5040586;28;20048;-86
2022/04/15 10:43:20;;;;;;;12.15;6.07;;;11.60;99.90;;;;;;5057526;28;20048;-86
2022/04/15 10:45:46;;;;;;;9.98;6.05;;;11.70;99.90;;;;;;5057563;28;20044;-86
2022/04/15 10:48:11;;;;;;;8.07;5.97;;;11.60;99.90;;;;;;5040633;28;20047;-85
2022/04/15 10:50:40;;;;;;;8.85;5.47;;;11.70;99.90;;;;;;5040525;28;20398;-86
2022/04/15 10:53:25;;;;;;;8.40;5.45;;;11.80;99.90;;;;;;5040980;28;20083;-87
2022/04/15 10:55:52;;;;;;;10.25;5.93;;;11.90;99.90;;;;;;5057264;28;20044;-87
2022/04/15 10:58:20;;;;;;;8.43;5.88;;;11.90;99.90;;;;;;5055397;28;20040;-87
2022/04/15 11:01:19;;;;;;;7.72;5.80;;;12.00;99.90;;;;;;5055228;28;20386;-86
2022/04/15 11:03:53;;;;;;;8.43;5.82;;;11.90;99.90;;;;;;5037762;28;20033;-87
2022/04/15 11:06:26;;;;;;;10.02;5.97;;;12.00;99.90;;;;;;5058377;28;20078;-86
2022/04/15 11:08:52;;;;;;;8.55;5.72;;;11.90;99.90;;;;;;5046871;28;20059;-87
2022/04/15 11:11:18;;;;;;;8.63;6.45;;;11.80;99.90;;;;;;5061844;28;20040;-87
2022/04/15 11:13:44;;;;;;;9.73;6.20;;;11.80;99.90;;;;;;5039547;28;20037;-87
2022/04/15 11:16:10;;;;;;;11.30;6.43;;;11.80;99.90;;;;;;5040247;28;20501;-86
2022/04/15 11:18:59;;;;;;;10.10;6.25;;;11.70;99.90;;;;;;5056186;28;20047;-86
2022/04/15 11:21:24;;;;;;;8.93;5.80;;;11.60;99.90;;;;;;5058713;28;20150;-86
2022/04/15 11:23:55;;;;;;;11.13;6.13;;;11.60;99.90;;;;;;5039911;28;20507;-88
2022/04/15 11:26:22;;;;;;;10.82;6.80;;;11.60;99.90;;;;;;5039849;28;20105;-87
2022/04/15 11:28:51;;;;;;;9.18;6.28;;;11.60;99.90;;;;;;5040140;28;20093;-87
2022/04/15 11:31:28;;;;;;;11.00;6.75;;;11.60;99.90;;;;;;5056699;28;20425;-87
2022/04/15 11:34:01;;;;;;;8.45;6.00;;;11.80;99.90;;;;;;5039051;28;20083;-87
2022/04/15 11:36:30;;;;;;;11.02;6.22;;;11.50;99.90;;;;;;5039657;28;20040;-88
2022/04/15 11:39:00;;;;;;;9.13;6.10;;;11.50;99.90;;;;;;5039605;28;20453;-87
2022/04/15 11:41:26;;;;;;;9.68;6.57;;;11.40;99.90;;;;;;5039575;28;20041;-87
2022/04/15 11:44:00;;;;;;;10.07;6.03;;;11.40;99.90;;;;;;5039208;28;20127;-87
2022/04/15 11:46:36;;;;;;;9.98;6.57;;;11.30;99.90;;;;;;5039426;28;20068;-87
2022/04/15 11:49:22;;;;;;;10.68;6.25;;;11.20;99.90;;;;;;5039130;28;20064;-87
2022/04/15 11:51:53;;;;;;;8.07;6.00;;;11.30;99.90;;;;;;5055694;28;20520;-87
2022/04/15 11:54:23;;;;;;;10.15;6.38;;;11.40;99.90;;;;;;5055841;28;20131;-87
2022/04/15 11:56:55;;;;;;;10.55;6.95;;;11.50;99.90;;;;;;5039222;28;20053;-88
2022/04/15 11:59:21;;;;;;;15.73;7.80;;;11.50;99.90;;;;;;5055584;28;20120;-88
2022/04/15 12:01:47;;;;;;;10.00;6.63;;;11.50;99.90;;;;;;5039004;28;20076;-88
2022/04/15 12:04:12;;;;;;;9.73;6.82;;;11.40;99.90;;;;;;5055385;28;20068;-89
2022/04/15 12:06:41;;;;;;;8.40;5.95;;;11.40;99.90;;;;;;5038975;28;20032;-87
2022/04/15 12:09:12;;;;;;;8.80;5.63;;;11.50;99.90;;;;;;5055429;28;20037;-87
2022/04/15 12:11:38;;;;;;;8.85;6.03;;;11.60;99.90;;;;;;5038828;28;20486;-87
2022/04/15 12:14:06;;;;;;;8.98;5.93;;;11.80;99.90;;;;;;5038590;28;20072;-87
2022/04/15 12:16:34;;;;;;;8.65;5.70;;;11.80;99.90;;;;;;5055457;28;20506;-87
2022/04/15 12:19:00;;;;;;;10.90;6.60;;;11.80;99.90;;;;;;5038505;28;20036;-86
2022/04/15 12:21:28;;;;;;;9.52;6.18;;;11.70;99.90;;;;;;5038553;28;20379;-88
2022/04/15 12:24:00;;;;;;;8.68;5.85;;;11.80;99.90;;;;;;5054688;28;20052;-87
2022/04/15 12:26:26;;;;;;;10.25;6.50;;;11.80;99.90;;;;;;5054920;28;20071;-86
2022/04/15 12:31:45;;;;;;;10.13;6.75;;;11.80;99.90;;;;;;5055482;28;20048;-87
2022/04/15 12:34:11;;;;;;;10.63;6.38;;;11.80;99.90;;;;;;5039997;28;20032;-86
2022/04/15 12:36:41;;;;;;;12.13;6.43;;;11.70;99.90;;;;;;5039616;28;20044;-86
2022/04/15 12:39:07;;;;;;;9.45;5.95;;;11.50;99.90;;;;;;5038286;28;20404;-87
2022/04/15 12:41:41;;;;;;;10.13;6.00;;;11.50;99.90;;;;;;5054614;28;20131;-86
2022/04/15 12:44:17;;;;;;;9.13;5.40;;;11.40;99.90;;;;;;5037793;28;20041;-88
2022/04/15 12:46:45;;;;;;;10.48;6.13;;;11.50;99.90;;;;;;5038015;28;20041;-86
2022/04/15 12:49:24;;;;;;;11.00;6.20;;;11.50;99.90;;;;;;5054743;28;20119;-87
2022/04/15 12:51:49;;;;;;;8.93;6.00;;;11.50;99.90;;;;;;5054421;28;20070;-87
2022/04/15 12:54:15;;;;;;;10.77;6.60;;;11.50;99.90;;;;;;5054463;28;20037;-87
2022/04/15 12:56:57;;;;;;;12.43;6.45;;;11.50;99.90;;;;;;5054390;28;20040;-87
2022/04/15 12:59:24;;;;;;;11.20;6.25;;;11.40;99.90;;;;;;5038175;28;20044;-87